Time;durP1;ratioP1;P1;durP2;ratioP2;P2;SDS_P1;SDS_P2;PMS_P1;PMS_P2;Temp;Humidity;BMP_temperature;BMP_pressure;BME280_temperature;BME280_humidity;BME280_pressure;Samples;Min_cycle;Max_cycle;Signal;HPM_P1;HPM_P2
2020/12/30 00:00:26;;;;;;;22.67;11.75;;;;;;;3.28;77.80;99149.20;1774666;80;25754;-87
2020/12/30 00:02:52;;;;;;;22.17;12.20;;;;;;;3.25;77.79;99143.85;1774747;80;25804;-86
2020/12/30 00:05:19;;;;;;;22.60;12.60;;;;;;;3.25;77.87;99142.56;1774461;79;26255;-87
2020/12/30 00:07:45;;;;;;;21.82;11.88;;;;;;;3.24;77.75;99143.98;1779812;79;25835;-87
2020/12/30 00:10:15;;;;;;;24.23;11.88;;;;;;;3.20;77.82;99140.09;1774683;79;25736;-88
2020/12/30 00:12:42;;;;;;;19.23;10.60;;;;;;;3.22;77.88;99146.73;1750815;79;25955;-88
2020/12/30 00:15:10;;;;;;;20.50;10.98;;;;;;;3.23;77.85;99150.92;1779103;79;25744;-87
2020/12/30 00:17:41;;;;;;;21.68;10.38;;;;;;;3.24;77.84;99146.56;1774064;80;26273;-88
2020/12/30 00:20:13;;;;;;;23.90;12.40;;;;;;;3.28;77.79;99151.78;1780619;80;25775;-87
2020/12/30 00:22:40;;;;;;;19.25;11.03;;;;;;;3.31;77.90;99143.73;1779974;79;25915;-87
2020/12/30 00:25:07;;;;;;;22.45;12.03;;;;;;;3.36;77.84;99145.39;1781817;79;25676;-86
2020/12/30 00:27:39;;;;;;;19.02;10.45;;;;;;;3.40;77.83;99151.06;1780911;79;25983;-87
2020/12/30 00:30:09;;;;;;;19.55;11.40;;;;;;;3.40;77.73;99157.03;1766763;80;25694;-87
2020/12/30 00:32:36;;;;;;;17.37;11.18;;;;;;;3.39;77.68;99150.75;1781236;80;25698;-88
2020/12/30 00:35:04;;;;;;;20.02;11.68;;;;;;;3.37;77.72;99152.66;1780873;79;26320;-86
2020/12/30 00:37:31;;;;;;;18.87;11.68;;;;;;;3.33;77.65;99152.16;1783063;79;25815;-88
2020/12/30 00:39:57;;;;;;;22.02;11.73;;;;;;;3.30;77.66;99152.42;1773411;79;26237;-88
2020/12/30 00:42:30;;;;;;;23.27;11.28;;;;;;;3.26;77.72;99158.38;1780182;79;25751;-88
2020/12/30 00:44:58;;;;;;;23.50;11.12;;;;;;;3.23;77.71;99166.42;1785249;79;26451;-87
2020/12/30 00:47:26;;;;;;;23.07;11.53;;;;;;;3.22;77.77;99176.42;1729143;80;25858;-87
2020/12/30 00:49:53;;;;;;;20.25;11.35;;;;;;;3.07;78.04;99143.03;1787379;79;25681;-87
2020/12/30 00:52:20;;;;;;;18.77;10.93;;;;;;;3.07;78.04;99143.03;1787444;78;25724;-86
2020/12/30 00:54:47;;;;;;;18.27;10.28;;;;;;;3.19;77.90;99165.10;1788148;78;25748;-87
2020/12/30 00:57:15;;;;;;;20.52;10.90;;;;;;;3.21;78.08;99170.91;1746605;80;26424;-87
2020/12/30 00:59:42;;;;;;;18.50;11.40;;;;;;;3.23;77.96;99171.58;1788769;78;25826;-87
2020/12/30 01:02:09;;;;;;;23.87;12.18;;;;;;;3.27;78.06;99167.76;1750421;81;26062;-88
2020/12/30 01:04:37;;;;;;;21.25;12.05;;;;;;;3.31;77.97;99176.81;1750878;80;25789;-87
2020/12/30 01:07:04;;;;;;;19.90;11.45;;;;;;;3.29;77.91;99167.59;1777091;80;25792;-87
2020/12/30 01:09:30;;;;;;;22.45;11.85;;;;;;;3.31;78.05;99163.91;1774466;80;26224;-86
2020/12/30 01:12:03;;;;;;;28.77;12.93;;;;;;;3.31;78.03;99165.20;1774803;80;25768;-86
2020/12/30 01:14:30;;;;;;;20.40;11.70;;;;;;;3.32;78.10;99165.52;1777017;80;26101;-87
2020/12/30 01:16:57;;;;;;;22.35;12.58;;;;;;;3.35;78.11;99170.87;1751458;80;25871;-86
2020/12/30 01:19:24;;;;;;;23.77;12.40;;;;;;;3.38;78.13;99172.34;1778238;80;26209;-87
2020/12/30 01:21:51;;;;;;;21.95;12.93;;;;;;;3.37;78.12;99168.95;1777973;80;25797;-87
2020/12/30 01:24:17;;;;;;;23.02;12.47;;;;;;;3.36;78.03;99171.70;1777279;80;25758;-87
2020/12/30 01:26:46;;;;;;;20.50;11.38;;;;;;;3.31;78.01;99165.69;1760676;80;25752;-86
2020/12/30 01:29:12;;;;;;;19.25;11.22;;;;;;;3.26;78.03;99162.24;1775575;80;26299;-87
2020/12/30 01:31:39;;;;;;;25.15;12.75;;;;;;;3.24;78.05;99162.06;1769511;80;25795;-87
2020/12/30 01:34:07;;;;;;;22.10;11.97;;;;;;;3.21;78.06;99168.33;1769259;80;25848;-86
2020/12/30 01:36:35;;;;;;;22.85;11.88;;;;;;;3.21;78.10;99163.65;1773207;80;25776;-87
2020/12/30 01:39:04;;;;;;;20.00;11.50;;;;;;;3.20;78.11;99168.48;1777723;80;25781;-87
2020/12/30 01:41:31;;;;;;;20.68;12.15;;;;;;;3.19;78.09;99175.88;1758190;80;26279;-87
2020/12/30 01:44:06;;;;;;;21.35;11.90;;;;;;;3.17;78.10;99179.92;1764829;81;26316;-87
2020/12/30 01:46:45;;;;;;;20.97;11.83;;;;;;;3.13;78.18;99173.89;1756144;79;25863;-88
2020/12/30 01:49:24;;;;;;;24.05;11.80;;;;;;;3.11;78.33;99168.41;1767558;80;25933;-87
2020/12/30 01:51:53;;;;;;;19.07;11.10;;;;;;;3.11;78.33;99168.41;1765000;79;26519;-88
2020/12/30 01:54:20;;;;;;;21.73;11.50;;;;;;;3.12;78.79;99169.22;1765398;80;25824;-87
2020/12/30 01:56:48;;;;;;;24.45;11.85;;;;;;;3.12;78.79;99169.22;1764506;81;26228;-87
2020/12/30 01:59:19;;;;;;;21.87;12.03;;;;;;;3.12;78.48;99175.67;1766995;80;25689;-88
2020/12/30 02:01:56;;;;;;;20.90;11.22;;;;;;;3.09;78.40;99178.55;1740091;81;25732;-87
2020/12/30 02:04:46;;;;;;;20.88;11.25;;;;;;;3.06;78.42;99180.94;1767133;81;25789;-87
2020/12/30 02:07:13;;;;;;;21.87;11.35;;;;;;;3.05;78.44;99197.85;1767937;80;25764;-86
2020/12/30 02:09:40;;;;;;;20.10;10.90;;;;;;;2.91;78.50;99181.09;1767894;81;25764;-86
2020/12/30 02:12:08;;;;;;;19.82;11.05;;;;;;;2.91;78.50;99181.09;1767463;79;25798;-87
2020/12/30 02:14:34;;;;;;;21.77;12.18;;;;;;;3.03;78.76;99210.92;1765042;80;25775;-87
2020/12/30 02:17:00;;;;;;;22.05;11.63;;;;;;;3.05;78.88;99206.89;1767524;81;25774;-88
2020/12/30 02:19:34;;;;;;;24.02;12.73;;;;;;;3.05;78.93;99207.69;1769263;81;25747;-87
2020/12/30 02:22:03;;;;;;;22.85;12.20;;;;;;;3.07;79.08;99207.56;1768226;80;25752;-87
2020/12/30 02:24:35;;;;;;;20.48;11.95;;;;;;;3.10;79.13;99205.97;1770309;80;26337;-87
2020/12/30 02:27:05;;;;;;;19.85;11.85;;;;;;;3.08;79.13;99201.43;1767347;81;25770;-86
2020/12/30 02:29:47;;;;;;;22.13;12.47;;;;;;;3.07;79.10;99203.20;1722985;82;26268;-87
2020/12/30 02:32:13;;;;;;;22.85;11.90;;;;;;;3.03;79.11;99199.30;1753516;81;25786;-86
2020/12/30 02:34:40;;;;;;;22.62;12.75;;;;;;;3.03;79.22;99195.92;1764530;81;25778;-87
2020/12/30 02:37:06;;;;;;;22.00;12.03;;;;;;;3.05;79.30;99202.53;1715469;82;25889;-86
2020/12/30 02:40:18;;;;;;;19.45;11.30;;;;;;;3.09;79.33;99196.62;1758791;80;25903;-87
2020/12/30 02:42:45;;;;;;;22.22;12.93;;;;;;;3.13;79.30;99195.84;1760809;80;25698;-86
2020/12/30 02:45:12;;;;;;;19.73;11.78;;;;;;;3.18;79.28;99197.02;1760807;79;25802;-86
2020/12/30 02:47:38;;;;;;;21.02;10.78;;;;;;;3.22;79.26;99197.53;1765504;81;26221;-86
2020/12/30 02:50:53;;;;;;;19.23;11.22;;;;;;;3.21;79.07;99199.80;1766520;80;25619;-86
2020/12/30 02:53:19;;;;;;;18.92;11.90;;;;;;;3.21;78.96;99200.60;1766627;81;25805;-86
2020/12/30 02:55:47;;;;;;;20.10;11.95;;;;;;;3.17;78.94;99197.99;1761582;80;25829;-86
2020/12/30 02:58:14;;;;;;;25.35;12.47;;;;;;;3.14;78.92;99198.29;1761986;80;25798;-86
2020/12/30 03:00:40;;;;;;;20.82;12.55;;;;;;;3.11;78.98;99198.10;1766811;81;25892;-86
2020/12/30 03:03:07;;;;;;;22.40;13.08;;;;;;;3.07;78.89;99199.33;1766563;80;26415;-86
2020/12/30 03:05:33;;;;;;;22.15;13.20;;;;;;;3.07;78.90;99194.66;1767769;81;25850;-85
2020/12/30 03:07:59;;;;;;;21.37;12.43;;;;;;;3.04;79.04;99195.75;1767497;81;25750;-87
2020/12/30 03:10:26;;;;;;;21.27;12.63;;;;;;;2.99;78.94;99202.31;1766804;81;25759;-87
2020/12/30 03:12:52;;;;;;;20.82;11.65;;;;;;;2.93;79.07;99202.90;1766366;81;25811;-87
2020/12/30 03:15:19;;;;;;;26.37;12.95;;;;;;;2.86;78.95;99200.06;1767353;80;25725;-87
2020/12/30 03:17:45;;;;;;;21.65;12.33;;;;;;;2.77;78.97;99200.45;1767307;81;25753;-87
2020/12/30 03:20:13;;;;;;;22.07;12.25;;;;;;;2.79;78.93;99201.62;1766936;81;25806;-87
2020/12/30 03:22:40;;;;;;;20.68;11.83;;;;;;;2.78;79.23;99200.81;1767360;80;26230;-86
2020/12/30 03:25:06;;;;;;;16.80;11.05;;;;;;;2.82;79.40;99195.68;1767923;80;25691;-86
2020/12/30 03:27:33;;;;;;;25.08;13.40;;;;;;;2.88;79.51;99195.58;1762612;80;25721;-87
2020/12/30 03:29:59;;;;;;;20.52;11.70;;;;;;;2.94;79.73;99201.45;1767141;81;25785;-86
2020/12/30 03:32:36;;;;;;;22.00;13.00;;;;;;;2.91;79.51;99180.29;1766802;80;26000;-87
2020/12/30 03:35:03;;;;;;;20.35;12.33;;;;;;;2.91;79.51;99180.29;1765241;80;25258;-87
2020/12/30 03:37:30;;;;;;;22.55;12.93;;;;;;;3.05;79.59;99204.30;1763764;80;25844;-86
2020/12/30 03:39:56;;;;;;;23.42;12.75;;;;;;;3.05;79.64;99198.66;1764752;81;25952;-87
2020/12/30 03:42:23;;;;;;;21.40;13.30;;;;;;;3.07;79.83;99199.33;1766243;79;25816;-86
2020/12/30 03:44:49;;;;;;;20.30;11.78;;;;;;;3.10;79.93;99196.45;1767104;80;25761;-87
2020/12/30 03:47:16;;;;;;;20.62;12.58;;;;;;;3.15;79.93;99192.64;1764553;79;26325;-86
2020/12/30 03:49:42;;;;;;;21.35;12.98;;;;;;;3.17;80.00;99197.19;1767327;80;25769;-86
2020/12/30 03:52:08;;;;;;;24.07;12.93;;;;;;;3.17;80.00;99194.13;1767100;80;25673;-86
2020/12/30 03:54:35;;;;;;;20.35;12.10;;;;;;;3.19;79.92;99206.86;1765580;80;25731;-85
2020/12/30 03:57:01;;;;;;;19.70;12.23;;;;;;;3.13;80.01;99190.67;1768288;79;25730;-85
2020/12/30 03:59:28;;;;;;;23.02;12.23;;;;;;;3.19;79.95;99202.54;1764072;79;26371;-87
2020/12/30 04:01:54;;;;;;;18.60;11.50;;;;;;;3.19;80.05;99196.53;1762508;81;26362;-86
2020/12/30 04:04:20;;;;;;;20.10;11.80;;;;;;;3.18;79.90;99200.09;1761092;80;26198;-87
2020/12/30 04:06:47;;;;;;;20.82;11.63;;;;;;;3.15;79.86;99197.32;1766378;81;25724;-87
2020/12/30 04:09:13;;;;;;;21.80;13.13;;;;;;;3.14;79.85;99202.61;1767198;80;25672;-86
2020/12/30 04:11:41;;;;;;;19.85;11.70;;;;;;;3.15;80.07;99196.03;1765436;80;25804;-88
2020/12/30 04:14:07;;;;;;;19.35;11.55;;;;;;;3.20;79.98;99193.02;1765999;81;25945;-88
2020/12/30 04:16:33;;;;;;;24.12;12.10;;;;;;;3.21;80.05;99199.80;1767020;80;25697;-86
2020/12/30 04:19:00;;;;;;;22.13;12.55;;;;;;;3.26;80.13;99200.17;1759812;81;25856;-88
2020/12/30 04:21:26;;;;;;;22.60;12.40;;;;;;;3.29;80.11;99196.00;1767118;80;25913;-86
2020/12/30 04:23:54;;;;;;;21.07;12.68;;;;;;;3.30;80.08;99197.16;1740435;81;26297;-86
2020/12/30 04:26:22;;;;;;;23.18;13.35;;;;;;;3.32;80.06;99202.16;1764896;81;25882;-87
2020/12/30 04:28:50;;;;;;;24.75;13.08;;;;;;;3.34;80.11;99202.83;1766407;80;25692;-87
2020/12/30 04:31:18;;;;;;;22.48;12.98;;;;;;;3.34;80.13;99199.77;1766674;80;25820;-87
2020/12/30 04:36:35;;;;;;;24.02;13.85;;;;;;;3.29;80.05;99216.66;1765687;80;26280;-87
2020/12/30 04:39:04;;;;;;;20.27;12.88;;;;;;;3.24;80.14;99212.41;1761743;81;26288;-87
2020/12/30 04:41:33;;;;;;;24.32;15.53;;;;;;;3.19;80.27;99215.45;1743518;79;26342;-87
2020/12/30 04:46:56;;;;;;;32.93;16.75;;;;;;;3.17;80.51;99212.19;1766071;79;25898;-86
2020/12/30 04:49:23;;;;;;;25.95;16.70;;;;;;;3.18;80.58;99218.97;1764435;80;26354;-88
2020/12/30 04:51:50;;;;;;;26.37;14.33;;;;;;;3.18;80.46;99216.39;1760745;81;25698;-88
2020/12/30 04:54:17;;;;;;;22.50;14.30;;;;;;;3.21;80.69;99216.58;1736749;81;25721;-86
2020/12/30 04:57:04;;;;;;;31.10;16.87;;;;;;;3.24;80.76;99218.86;1732977;81;25786;-87
2020/12/30 04:59:38;;;;;;;26.95;16.82;;;;;;;3.28;80.84;99224.08;1738013;82;25810;-87
2020/12/30 05:02:10;;;;;;;31.10;18.67;;;;;;;3.33;80.87;99227.04;1753153;81;25765;-87
2020/12/30 05:04:39;;;;;;;31.17;19.70;;;;;;;3.34;80.86;99234.62;1767827;81;25789;-86
2020/12/30 05:07:12;;;;;;;30.32;18.32;;;;;;;3.38;80.98;99245.95;1766625;79;25888;-87
2020/12/30 05:09:42;;;;;;;26.12;15.90;;;;;;;3.43;80.99;99252.30;1762656;80;25721;-86
2020/12/30 05:12:17;;;;;;;25.50;16.02;;;;;;;3.47;81.02;99251.06;1768430;80;25621;-86
2020/12/30 05:14:45;;;;;;;23.80;14.87;;;;;;;3.49;81.05;99249.61;1771981;80;25255;-86
2020/12/30 05:17:13;;;;;;;29.18;18.60;;;;;;;3.51;81.19;99248.98;1770130;80;25209;-85
2020/12/30 05:19:43;;;;;;;23.57;15.00;;;;;;;3.46;81.14;99244.73;1766697;80;25713;-88
2020/12/30 05:22:19;;;;;;;20.70;12.43;;;;;;;3.50;81.20;99252.54;1765660;80;25512;-87
2020/12/30 05:24:47;;;;;;;23.50;12.70;;;;;;;3.50;81.29;99255.13;1762083;80;25775;-88
2020/12/30 05:27:15;;;;;;;21.95;12.60;;;;;;;3.49;81.37;99250.90;1735827;80;25782;-86
2020/12/30 05:29:52;;;;;;;17.82;11.28;;;;;;;3.46;81.53;99257.17;1746410;81;25825;-88
2020/12/30 05:32:20;;;;;;;18.97;11.27;;;;;;;3.48;81.71;99255.74;1769119;81;25959;-85
2020/12/30 05:34:48;;;;;;;16.65;10.45;;;;;;;3.47;81.85;99262.69;1755504;81;25779;-86
2020/12/30 05:37:15;;;;;;;15.58;9.45;;;;;;;3.50;82.04;99264.97;1767421;81;25709;-86
2020/12/30 05:39:42;;;;;;;17.55;9.60;;;;;;;3.54;82.26;99266.28;1762225;80;26268;-86
2020/12/30 05:42:20;;;;;;;15.08;9.60;;;;;;;3.60;82.48;99265.38;1740242;80;25838;-84
2020/12/30 05:44:52;;;;;;;14.95;7.97;;;;;;;3.64;82.65;99262.84;1773419;80;26520;-87
2020/12/30 05:47:23;;;;;;;14.90;8.85;;;;;;;3.69;82.85;99260.14;1797939;78;26272;-86
2020/12/30 05:49:52;;;;;;;14.45;8.85;;;;;;;3.76;83.06;99257.77;1796577;78;26337;-86
2020/12/30 05:52:23;;;;;;;15.28;8.93;;;;;;;3.82;83.16;99259.78;1793693;78;25642;-86
2020/12/30 05:54:54;;;;;;;11.83;7.37;;;;;;;3.91;83.34;99259.36;1762561;79;25768;-85
2020/12/30 05:57:30;;;;;;;11.12;6.62;;;;;;;3.95;83.43;99258.89;1788861;79;25808;-87
2020/12/30 06:00:11;;;;;;;13.35;7.35;;;;;;;4.02;83.48;99253.95;1798193;78;25864;-85
2020/12/30 06:02:44;;;;;;;13.45;6.62;;;;;;;4.07;83.55;99253.02;1749692;81;25764;-87
2020/12/30 06:05:16;;;;;;;12.82;6.75;;;;;;;4.15;83.68;99253.08;1758282;79;26243;-86
2020/12/30 06:07:45;;;;;;;10.90;6.60;;;;;;;4.21;83.69;99257.64;1780024;79;26280;-86
2020/12/30 06:10:18;;;;;;;9.10;5.97;;;;;;;4.30;83.73;99256.41;1780666;79;25622;-86
2020/12/30 06:12:54;;;;;;;12.18;6.70;;;;;;;4.37;83.71;99258.72;1779438;79;25745;-88
2020/12/30 06:15:26;;;;;;;13.68;7.10;;;;;;;4.42;83.72;99263.77;1765608;80;25776;-86
2020/12/30 06:18:06;;;;;;;12.60;7.92;;;;;;;4.48;83.60;99266.22;1770439;80;25268;-86
2020/12/30 06:20:39;;;;;;;16.25;7.95;;;;;;;4.50;83.44;99263.47;1780243;80;25839;-88
2020/12/30 06:23:09;;;;;;;13.13;8.28;;;;;;;4.49;83.40;99270.42;1780655;79;25872;-85
2020/12/30 06:25:43;;;;;;;12.33;7.75;;;;;;;4.50;83.53;99264.30;1780510;80;25759;-85
2020/12/30 06:28:14;;;;;;;12.40;8.08;;;;;;;4.52;83.47;99272.70;1735814;80;25726;-86
2020/12/30 06:30:44;;;;;;;15.25;8.10;;;;;;;4.50;83.47;99264.76;1778811;80;25716;-86
2020/12/30 06:33:11;;;;;;;12.82;8.33;;;;;;;4.50;83.49;99265.59;1782326;79;25423;-86
2020/12/30 06:35:41;;;;;;;13.53;7.80;;;;;;;4.53;83.50;99271.75;1777845;79;25760;-87
2020/12/30 06:38:32;;;;;;;14.00;7.35;;;;;;;4.53;83.53;99278.22;1781271;79;25804;-87
2020/12/30 06:41:05;;;;;;;12.75;7.72;;;;;;;4.55;83.62;99269.80;1765652;81;25920;-87
2020/12/30 06:43:41;;;;;;;13.55;7.70;;;;;;;4.58;83.58;99275.16;1774161;79;26236;-87
2020/12/30 06:46:12;;;;;;;14.80;8.88;;;;;;;4.56;83.54;99271.93;1775608;79;26268;-88
2020/12/30 06:49:00;;;;;;;14.83;8.28;;;;;;;4.54;83.42;99271.27;1774885;79;25732;-86
2020/12/30 06:51:30;;;;;;;15.58;8.95;;;;;;;4.52;83.46;99285.63;1778884;79;26222;-87
2020/12/30 06:53:57;;;;;;;18.15;9.58;;;;;;;4.51;83.49;99284.02;1750427;80;25882;-87
2020/12/30 06:56:45;;;;;;;15.93;10.58;;;;;;;4.52;83.52;99290.00;1778611;79;26298;-87
2020/12/30 06:59:28;;;;;;;15.63;10.38;;;;;;;4.53;83.74;99279.97;1780906;80;25507;-86
2020/12/30 07:02:07;;;;;;;15.23;10.45;;;;;;;4.56;83.77;99294.73;1777677;79;26368;-87
2020/12/30 07:04:34;;;;;;;17.07;10.60;;;;;;;;;;1769227;79;25716;-87
2020/12/30 07:07:01;;;;;;;18.77;10.93;;;;;;;4.58;83.78;99291.52;1759979;80;25299;-88
2020/12/30 07:09:38;;;;;;;22.30;9.95;;;;;;;4.64;83.90;99288.80;1770118;80;26019;-86
2020/12/30 07:12:06;;;;;;;17.35;10.63;;;;;;;4.67;83.82;99284.61;1796674;78;25251;-87
2020/12/30 07:14:37;;;;;;;17.05;10.65;;;;;;;4.74;83.90;99289.97;1795405;78;25789;-87
2020/12/30 07:17:08;;;;;;;18.87;11.75;;;;;;;4.73;83.70;99293.53;1795289;78;26280;-86
2020/12/30 07:19:38;;;;;;;23.95;11.60;;;;;;;4.68;83.67;99282.34;1788061;78;25746;-87
2020/12/30 07:22:11;;;;;;;22.95;12.58;;;;;;;4.66;83.75;99279.08;1800332;78;25683;-86
2020/12/30 07:24:53;;;;;;;17.87;12.43;;;;;;;4.66;83.90;99276.03;1776694;78;26325;-87
2020/12/30 07:27:25;;;;;;;19.45;11.88;;;;;;;4.75;84.20;99271.70;1779014;78;26251;-86
2020/12/30 07:29:51;;;;;;;21.65;12.40;;;;;;;4.79;84.21;99273.50;1780177;79;26301;-87
2020/12/30 07:32:20;;;;;;;20.05;11.80;;;;;;;4.79;84.11;99275.59;1797786;78;26262;-85
2020/12/30 07:34:49;;;;;;;19.20;11.43;;;;;;;4.79;84.12;99270.91;1802536;78;25779;-86
2020/12/30 07:37:17;;;;;;;16.82;10.20;;;;;;;4.81;84.20;99264.61;1794654;78;25292;-85
2020/12/30 07:39:47;;;;;;;17.40;9.88;;;;;;;4.76;84.06;99258.28;1798055;78;25802;-86
2020/12/30 07:42:19;;;;;;;18.85;10.30;;;;;;;4.66;84.08;99253.20;1794773;78;25776;-86
2020/12/30 07:44:55;;;;;;;15.48;10.25;;;;;;;4.61;84.32;99251.09;1798224;78;26348;-86
2020/12/30 07:47:27;;;;;;;17.00;10.82;;;;;;;4.66;84.67;99242.39;1800780;78;25859;-88
2020/12/30 07:50:06;;;;;;;19.07;10.60;;;;;;;4.71;84.67;99257.44;1798514;78;25752;-85
2020/12/30 07:52:33;;;;;;;17.25;11.33;;;;;;;4.79;84.74;99260.55;1780104;79;25852;-85
2020/12/30 07:55:00;;;;;;;18.20;11.95;;;;;;;4.80;84.63;99259.11;1780496;80;25680;-85
2020/12/30 07:57:27;;;;;;;23.50;15.25;;;;;;;4.82;84.65;99257.16;1784130;80;25218;-86
2020/12/30 07:59:54;;;;;;;23.50;16.42;;;;;;;4.90;84.81;99247.33;1784492;78;25959;-87
2020/12/30 08:02:21;;;;;;;23.80;15.80;;;;;;;4.97;84.84;99247.05;1779197;79;25752;-86
2020/12/30 08:04:51;;;;;;;24.18;15.88;;;;;;;5.01;84.84;99248.83;1774041;79;26477;-86
2020/12/30 08:07:18;;;;;;;23.60;15.70;;;;;;;5.05;84.80;99248.37;1775213;79;25751;-87
2020/12/30 08:09:49;;;;;;;24.80;15.13;;;;;;;5.09;84.84;99252.25;1775570;79;25800;-87
2020/12/30 08:12:17;;;;;;;21.68;14.90;;;;;;;5.12;84.88;99257.11;1768012;79;25920;-87
2020/12/30 08:14:46;;;;;;;22.62;13.60;;;;;;;5.15;84.91;99259.06;1777806;79;25802;-87
2020/12/30 08:17:17;;;;;;;25.35;14.18;;;;;;;5.18;84.95;99261.34;1741824;80;26378;-88
2020/12/30 08:19:52;;;;;;;22.67;14.43;;;;;;;5.18;84.95;99267.33;1780953;80;25807;-87
2020/12/30 08:22:24;;;;;;;23.18;13.08;;;;;;;5.17;84.94;99267.01;1776198;80;26334;-87
2020/12/30 08:24:55;;;;;;;30.68;14.60;;;;;;;5.15;85.00;99262.95;1779425;79;26200;-86
2020/12/30 08:27:25;;;;;;;21.48;13.62;;;;;;;5.14;85.07;99256.97;1767290;80;25716;-86
2020/12/30 08:29:52;;;;;;;27.30;16.20;;;;;;;5.14;85.08;99259.55;1779090;79;25893;-85
2020/12/30 08:32:37;;;;;;;30.40;19.75;;;;;;;5.12;85.05;99255.81;1780233;79;25543;-87
2020/12/30 08:35:18;;;;;;;36.98;24.98;;;;;;;5.15;85.26;99249.52;1775956;80;25804;-87
2020/12/30 08:38:01;;;;;;;40.58;25.82;;;;;;;5.22;85.39;99249.70;1790278;79;25744;-88
2020/12/30 08:40:30;;;;;;;35.75;22.13;;;;;;;5.27;85.43;99256.53;1787822;79;25870;-87
2020/12/30 08:43:33;;;;;;;30.50;20.57;;;;;;;5.28;85.37;99252.95;1772816;79;26341;-87
2020/12/30 08:46:06;;;;;;;28.83;20.23;;;;;;;5.34;85.51;99248.42;1751530;79;25815;-88
2020/12/30 08:48:37;;;;;;;26.40;17.98;;;;;;;5.43;85.60;99255.73;1778246;79;25767;-87
2020/12/30 08:51:04;;;;;;;24.20;15.75;;;;;;;5.43;85.48;99245.36;1780245;80;26187;-86
2020/12/30 08:53:39;;;;;;;29.92;18.27;;;;;;;5.47;85.50;99247.98;1779013;79;26305;-86
2020/12/30 08:56:07;;;;;;;26.93;18.40;;;;;;;5.47;85.40;99246.68;1781395;79;26353;-85
2020/12/30 08:58:39;;;;;;;27.10;17.55;;;;;;;5.53;85.62;99245.55;1777852;79;25820;-85
2020/12/30 09:01:21;;;;;;;29.07;16.97;;;;;;;5.61;85.60;99247.83;1780413;80;25819;-86
2020/12/30 09:03:51;;;;;;;29.02;17.65;;;;;;;5.65;85.55;99247.36;1778577;80;25867;-86
2020/12/30 09:06:30;;;;;;;29.70;19.95;;;;;;;5.70;85.59;99246.39;1779934;79;25816;-87
2020/12/30 09:09:12;;;;;;;40.38;26.80;;;;;;;5.72;85.57;99261.77;1777305;79;25898;-87
2020/12/30 09:11:53;;;;;;;43.28;31.15;;;;;;;5.77;85.75;99259.02;1776384;79;25532;-86
2020/12/30 09:14:22;;;;;;;81.25;54.45;;;;;;;5.81;85.70;99259.98;1772367;80;26091;-85
2020/12/30 09:17:04;;;;;;;61.58;44.63;;;;;;;5.76;85.56;99257.91;1778469;80;25869;-87
2020/12/30 09:19:28;;;;;;;90.95;57.30;;;;;;;5.75;85.62;99256.27;1774910;80;25926;-86
2020/12/30 09:22:10;;;;;;;109.17;65.62;;;;;;;5.77;85.80;99253.03;1778760;79;26272;-88
2020/12/30 09:24:39;;;;;;;55.38;35.52;;;;;;;5.77;85.83;99253.83;1774796;79;25756;-87
2020/12/30 09:27:21;;;;;;;67.00;47.30;;;;;;;5.76;85.75;99252.22;1748667;80;25870;-86
2020/12/30 09:30:13;;;;;;;58.08;39.75;;;;;;;5.76;85.76;99250.12;1774996;79;25740;-87
2020/12/30 09:32:42;;;;;;;46.30;28.85;;;;;;;5.77;85.87;99247.84;1770207;80;25760;-85
2020/12/30 09:35:11;;;;;;;45.35;30.35;;;;;;;5.78;85.85;99240.38;1766123;80;26267;-85
2020/12/30 09:37:41;;;;;;;44.33;27.03;;;;;;;5.83;86.00;99239.91;1786535;79;25920;-87
2020/12/30 09:40:14;;;;;;;38.48;24.23;;;;;;;5.87;86.00;99235.53;1724209;80;34861;-88
2020/12/30 09:42:43;;;;;;;51.95;37.08;;;;;;;5.91;85.97;99240.70;1776446;79;26374;-86
2020/12/30 09:45:16;;;;;;;36.63;26.05;;;;;;;5.95;86.01;99242.05;1777673;78;25701;-88
2020/12/30 09:47:44;;;;;;;24.07;16.07;;;;;;;5.94;85.85;99241.70;1776241;79;26280;-87
2020/12/30 09:50:15;;;;;;;26.42;13.25;;;;;;;6.00;86.00;99244.97;1772477;79;25781;-86
2020/12/30 09:52:46;;;;;;;26.60;13.78;;;;;;;5.97;85.89;99244.00;1774457;79;25758;-86
2020/12/30 09:55:13;;;;;;;22.60;14.25;;;;;;;5.96;85.87;99241.06;1776927;79;25797;-87
2020/12/30 09:57:41;;;;;;;25.27;13.75;;;;;;;5.94;85.73;99248.19;1742579;79;25874;-87
2020/12/30 10:00:10;;;;;;;18.80;12.63;;;;;;;5.92;85.68;99250.59;1772504;79;25776;-88
2020/12/30 10:02:41;;;;;;;18.05;12.35;;;;;;;5.93;85.80;99254.36;1776993;80;25812;-87
2020/12/30 10:05:07;;;;;;;19.27;12.93;;;;;;;5.99;85.95;99247.71;1775547;79;26365;-86
2020/12/30 10:07:34;;;;;;;20.43;13.72;;;;;;;6.03;85.93;99246.89;1773500;78;25911;-88
2020/12/30 10:10:00;;;;;;;18.85;13.72;;;;;;;6.05;85.89;99248.34;1772542;79;26248;-86
2020/12/30 10:12:27;;;;;;;20.12;13.28;;;;;;;6.06;85.88;99240.91;1779481;79;25895;-87
2020/12/30 10:14:53;;;;;;;19.73;13.22;;;;;;;6.11;85.93;99236.05;1777843;79;26382;-88
2020/12/30 10:17:20;;;;;;;19.20;13.45;;;;;;;6.14;85.82;99225.83;1772299;79;25908;-86
2020/12/30 10:19:47;;;;;;;20.20;13.53;;;;;;;6.13;85.79;99221.10;1777123;79;25793;-85
2020/12/30 10:22:13;;;;;;;19.98;13.90;;;;;;;6.20;86.01;99221.27;1768482;80;25798;-86
2020/12/30 10:24:44;;;;;;;23.27;13.88;;;;;;;6.25;86.02;99216.40;1740263;80;27360;-86
2020/12/30 10:27:13;;;;;;;36.05;25.05;;;;;;;6.25;85.84;99209.91;1765128;80;25779;-87
2020/12/30 10:29:40;;;;;;;27.93;16.50;;;;;;;6.20;85.63;99201.31;1770401;79;25786;-87
2020/12/30 10:32:07;;;;;;;31.82;22.85;;;;;;;6.14;85.52;99196.80;1771738;80;25779;-86
2020/12/30 10:34:35;;;;;;;22.42;14.18;;;;;;;6.12;85.64;99194.05;1774872;79;25359;-87
2020/12/30 10:37:07;;;;;;;20.77;13.15;;;;;;;6.10;85.74;99191.60;1777152;79;25678;-87
2020/12/30 10:39:35;;;;;;;22.07;13.30;;;;;;;6.10;85.80;99192.09;1778662;78;25567;-87
2020/12/30 10:42:04;;;;;;;17.15;12.28;;;;;;;6.11;85.92;99182.86;1775773;80;25217;-86
2020/12/30 10:44:34;;;;;;;22.35;13.30;;;;;;;6.15;85.98;99189.33;1773693;79;25845;-85
2020/12/30 10:47:01;;;;;;;20.15;12.58;;;;;;;6.23;86.02;99182.02;1759616;80;26434;-87
2020/12/30 10:49:29;;;;;;;19.82;14.00;;;;;;;6.27;85.98;99179.40;1774681;79;25934;-86
2020/12/30 10:51:56;;;;;;;30.72;15.20;;;;;;;6.27;85.75;99169.52;1760034;80;26546;-86
2020/12/30 10:54:23;;;;;;;28.60;17.00;;;;;;;6.29;85.85;99171.46;1762972;80;25796;-88
2020/12/30 10:56:51;;;;;;;22.93;16.93;;;;;;;6.38;86.13;99166.09;1726805;79;160257;-86
2020/12/30 10:59:20;;;;;;;25.20;16.62;;;;;;;6.49;85.98;99161.48;1724509;82;25841;-85
2020/12/30 11:02:01;;;;;;;18.50;13.98;;;;;;;6.37;85.37;99156.67;1698520;82;25703;-86
2020/12/30 11:04:42;;;;;;;25.88;16.05;;;;;;;6.27;85.26;99161.23;1725908;81;25781;-86
2020/12/30 11:07:18;;;;;;;17.90;13.70;;;;;;;6.30;85.68;99164.82;1713013;81;26320;-86
2020/12/30 11:09:54;;;;;;;24.30;13.48;;;;;;;6.41;85.98;99163.16;1718475;81;25874;-86
2020/12/30 11:12:44;;;;;;;20.00;13.90;;;;;;;6.47;85.97;99155.68;1726850;81;26460;-86
2020/12/30 11:14:55;;;;;;;22.95;13.22;;;;;;;6.57;86.05;99159.66;1693268;81;25994;-86
2020/12/30 11:17:23;;;;;;;21.68;13.98;;;;;;;6.60;85.92;99159.35;1725190;81;26297;-87
2020/12/30 11:19:50;;;;;;;19.95;14.75;;;;;;;6.63;85.82;99162.10;1715583;81;25766;-85
2020/12/30 11:22:18;;;;;;;21.35;15.80;;;;;;;6.64;85.80;99162.41;1722877;81;25529;-86
2020/12/30 11:24:57;;;;;;;24.30;15.32;;;;;;;6.65;85.74;99162.72;1725933;81;25829;-87
2020/12/30 11:27:51;;;;;;;23.18;14.95;;;;;;;6.63;85.64;99165.50;1724432;81;26797;-86
2020/12/30 11:30:17;;;;;;;28.38;17.15;;;;;;;6.58;85.46;99166.49;1708079;81;26258;-86
2020/12/30 11:32:46;;;;;;;26.93;16.25;;;;;;;6.53;85.48;99165.38;1722530;81;25347;-86
2020/12/30 11:35:16;;;;;;;23.95;15.55;;;;;;;6.54;85.64;99160.01;1727248;81;25761;-87
2020/12/30 11:37:45;;;;;;;21.40;13.25;;;;;;;6.53;85.60;99160.19;1724923;81;25722;-88
2020/12/30 11:40:14;;;;;;;23.00;15.05;;;;;;;6.50;85.49;99154.05;1714226;82;25747;-87
2020/12/30 11:42:58;;;;;;;25.70;15.48;;;;;;;6.51;85.54;99149.16;1726448;82;25721;-87
2020/12/30 11:53:33;;;;;;;23.55;14.38;;;;;;;6.51;85.53;99141.38;1730057;81;25780;-81
2020/12/30 11:56:04;;;;;;;24.20;14.07;;;;;;;6.61;85.75;99148.48;1721106;81;25841;-84